Time;durP1;ratioP1;P1;durP2;ratioP2;P2;SDS_P1;SDS_P2;PMS_P1;PMS_P2;Temp;Humidity;BMP_temperature;BMP_pressure;BME280_temperature;BME280_humidity;BME280_pressure;Samples;Min_cycle;Max_cycle;Signal;HPM_P1;HPM_P2
2022/06/23 00:05:04;;;;;;;1.75;1.60;;;;;;;19.68;52.69;96484.88;9945567;29;20062;-52
2022/06/23 00:10:26;;;;;;;2.90;1.80;;;;;;;19.69;52.64;96491.06;9929328;29;20063;-50
2022/06/23 00:15:45;;;;;;;1.92;1.70;;;;;;;19.68;52.61;96492.97;9954971;29;20058;-52
2022/06/23 00:21:11;;;;;;;1.88;1.70;;;;;;;19.68;52.74;96492.16;9935569;29;20115;-53
2022/06/23 00:26:33;;;;;;;3.17;1.83;;;;;;;19.68;52.81;96497.56;9927322;29;20454;-51
2022/06/23 00:32:04;;;;;;;2.08;1.58;;;;;;;19.67;52.81;96496.78;9938440;29;20062;-53
2022/06/23 00:37:24;;;;;;;2.75;1.80;;;;;;;19.67;52.76;96496.78;9929306;29;20070;-53
2022/06/23 00:42:54;;;;;;;2.17;1.90;;;;;;;19.67;52.82;96504.13;9953567;29;20066;-50
2022/06/23 00:48:26;;;;;;;2.38;1.52;;;;;;;19.67;52.92;96504.13;9939153;29;20039;-52
2022/06/23 00:53:56;;;;;;;2.35;1.85;;;;;;;19.66;52.89;96513.31;9944035;29;20066;-53
2022/06/23 00:59:27;;;;;;;1.70;1.60;;;;;;;19.68;52.96;96513.78;9937151;29;20061;-50
2022/06/23 01:04:58;;;;;;;1.70;1.58;;;;;;;19.65;52.89;96511.75;9945571;29;20059;-53
2022/06/23 01:10:27;;;;;;;1.95;1.73;;;;;;;19.64;52.90;96510.97;9965322;29;20065;-53
2022/06/23 01:15:52;;;;;;;3.10;1.80;;;;;;;19.66;52.82;96516.03;9958059;29;20123;-53
2022/06/23 01:21:22;;;;;;;2.58;1.92;;;;;;;19.65;53.03;96517.94;9942583;29;20090;-49
2022/06/23 01:27:03;;;;;;;2.45;1.85;;;;;;;19.65;53.10;96536.09;9951059;29;20066;-50
2022/06/23 01:32:27;;;;;;;2.28;2.05;;;;;;;19.64;53.08;96529.91;9939050;29;20073;-53
2022/06/23 01:37:52;;;;;;;2.17;1.70;;;;;;;19.64;53.09;96548.00;9924107;29;20057;-52
2022/06/23 01:43:25;;;;;;;2.33;1.73;;;;;;;19.64;53.27;96545.28;9937491;29;20059;-53
2022/06/23 01:49:05;;;;;;;3.13;2.00;;;;;;;19.64;53.32;96539.91;9931994;29;20055;-50
2022/06/23 01:54:26;;;;;;;2.00;1.80;;;;;;;19.63;53.43;96543.72;9925563;29;20059;-51
2022/06/23 02:00:18;;;;;;;4.78;2.08;;;;;;;19.63;53.46;96543.72;9925651;29;20055;-52
2022/06/23 02:05:43;;;;;;;2.17;1.95;;;;;;;19.62;53.55;96548.34;9939106;29;20043;-52
2022/06/23 02:11:34;;;;;;;3.10;2.38;;;;;;;19.62;53.66;96561.88;9963410;29;20062;-52
2022/06/23 02:16:59;;;;;;;2.35;2.00;;;;;;;19.61;53.58;96570.28;9956784;29;20070;-53
2022/06/23 02:22:29;;;;;;;3.08;2.13;;;;;;;19.60;53.74;96571.41;9947413;29;20075;-52
2022/06/23 02:28:08;;;;;;;2.85;2.25;;;;;;;19.61;53.91;96578.41;9935457;29;20128;-53
2022/06/23 02:33:31;;;;;;;2.30;2.10;;;;;;;19.61;53.96;96590.00;9940666;29;20058;-53
2022/06/23 02:38:54;;;;;;;2.30;2.10;;;;;;;19.61;54.05;96594.63;9932993;29;20062;-51
2022/06/23 02:44:19;;;;;;;3.15;2.03;;;;;;;19.61;54.10;96605.44;9950324;29;20047;-52
2022/06/23 02:49:46;;;;;;;2.92;2.42;;;;;;;19.61;54.01;96610.81;9933539;29;20051;-53
2022/06/23 02:55:18;;;;;;;2.67;2.20;;;;;;;19.59;54.29;96613.84;9924144;29;20066;-51
2022/06/23 03:00:47;;;;;;;2.60;2.40;;;;;;;19.60;54.32;96631.66;9949825;29;20142;-52
2022/06/23 03:06:20;;;;;;;2.17;1.98;;;;;;;19.60;54.47;96637.06;9937483;29;20065;-53
2022/06/23 03:11:52;;;;;;;2.70;2.15;;;;;;;19.60;54.68;96638.97;9930403;29;20058;-53
2022/06/23 03:17:18;;;;;;;3.45;2.45;;;;;;;19.60;54.80;96633.56;9951150;29;20074;-52
2022/06/23 03:23:00;;;;;;;3.33;2.47;;;;;;;19.61;55.04;96643.25;9903803;29;20067;-53
2022/06/23 03:28:25;;;;;;;3.05;2.28;;;;;;;19.59;55.00;96637.38;9934988;29;20055;-52
2022/06/23 03:34:06;;;;;;;5.80;2.40;;;;;;;19.59;55.04;96634.69;9922658;29;20086;-50
2022/06/23 03:45:27;;;;;;;3.28;2.33;;;;;;;19.59;55.10;96650.91;9927049;29;20067;-51
2022/06/23 03:51:15;;;;;;;3.08;2.45;;;;;;;19.58;55.31;96654.72;9930674;29;20070;-50
2022/06/23 03:56:43;;;;;;;2.60;2.17;;;;;;;19.56;55.43;96655.84;9933215;29;20442;-52
2022/06/23 04:02:12;;;;;;;2.65;2.30;;;;;;;19.59;55.47;96651.69;9938492;29;20116;-53
2022/06/23 04:08:03;;;;;;;2.83;2.13;;;;;;;19.60;55.56;96658.69;9937911;29;20062;-51
2022/06/23 04:13:28;;;;;;;4.63;2.30;;;;;;;19.61;55.57;96654.06;9918417;29;20085;-51
2022/06/23 04:18:48;;;;;;;4.70;2.92;;;;;;;19.42;59.01;96654.47;9919145;29;20423;-53
2022/06/23 04:24:14;;;;;;;5.15;3.15;;;;;;;19.23;60.50;96649.50;9943777;29;20108;-52
2022/06/23 04:29:36;;;;;;;5.25;2.95;;;;;;;19.17;62.56;96663.19;9947344;29;20055;-54
2022/06/23 04:35:06;;;;;;;3.97;2.92;;;;;;;19.22;62.77;96677.63;9963151;29;20089;-53
2022/06/23 04:40:45;;;;;;;4.07;3.08;;;;;;;19.23;62.52;96677.31;9940798;29;20059;-54
2022/06/23 04:46:19;;;;;;;4.07;3.08;;;;;;;19.29;63.40;96684.09;9935059;29;20070;-54
2022/06/23 04:51:46;;;;;;;5.03;3.00;;;;;;;19.34;62.43;96683.91;9945914;29;20063;-50
2022/06/23 04:57:19;;;;;;;4.03;3.38;;;;;;;19.40;62.79;96689.13;9946665;29;20062;-54
2022/06/23 05:02:47;;;;;;;13.43;4.88;;;;;;;19.45;61.40;96697.84;9943701;29;20110;-53
2022/06/23 05:08:17;;;;;;;12.88;5.20;;;;;;;19.51;60.06;96685.75;9944019;29;20062;-53
2022/06/23 05:13:40;;;;;;;16.60;6.28;;;;;;;19.54;59.22;96692.41;9943034;29;20477;-53
2022/06/23 05:19:07;;;;;;;20.20;6.15;;;;;;;19.55;58.42;96694.00;9928532;29;20431;-53
2022/06/23 05:24:29;;;;;;;15.60;5.60;;;;;;;19.57;58.13;96691.75;9931327;29;20163;-52
2022/06/23 05:29:53;;;;;;;13.77;6.10;;;;;;;19.58;57.82;96706.03;9947772;29;20061;-53
2022/06/23 05:35:23;;;;;;;13.88;5.05;;;;;;;19.59;57.63;96703.03;9951586;29;20208;-51
2022/06/23 05:40:53;;;;;;;12.95;5.22;;;;;;;19.61;57.54;96716.22;9928332;29;20062;-53
2022/06/23 05:46:18;;;;;;;13.23;5.90;;;;;;;19.60;57.34;96714.63;9946391;29;20119;-53
2022/06/23 05:51:41;;;;;;;9.80;5.13;;;;;;;19.59;57.18;96719.25;9957888;29;20123;-51
2022/06/23 05:57:15;;;;;;;12.05;5.20;;;;;;;19.60;57.21;96730.84;9968524;29;20075;-53
2022/06/23 06:03:01;;;;;;;11.32;4.95;;;;;;;19.60;57.23;96731.66;9935215;29;20063;-53
2022/06/23 06:08:22;;;;;;;8.98;5.18;;;;;;;19.61;57.09;96724.31;9934023;29;20055;-52
2022/06/23 06:13:42;;;;;;;9.80;4.90;;;;;;;19.61;57.14;96744.03;9951052;29;20051;-52
2022/06/23 06:19:03;;;;;;;9.82;4.75;;;;;;;19.61;57.12;96743.25;9929935;29;20496;-54
2022/06/23 06:24:39;;;;;;;10.85;5.10;;;;;;;19.62;56.98;96744.81;9953692;29;20062;-53
2022/06/23 06:30:00;;;;;;;8.75;4.95;;;;;;;19.61;56.89;96745.94;9958249;29;20058;-53
2022/06/23 06:35:42;;;;;;;7.70;4.47;;;;;;;19.61;56.99;96752.13;9956013;29;20515;-52
2022/06/23 06:41:02;;;;;;;9.57;5.22;;;;;;;19.63;56.91;96754.50;9955329;29;20065;-52
2022/06/23 06:46:22;;;;;;;9.25;5.03;;;;;;;19.63;57.03;96754.50;9957748;29;20082;-54
2022/06/23 06:51:41;;;;;;;8.60;4.60;;;;;;;19.64;56.88;96758.78;9953244;29;20078;-54
2022/06/23 06:57:04;;;;;;;8.60;5.05;;;;;;;19.63;56.94;96760.72;9928165;29;20537;-53
2022/06/23 07:02:42;;;;;;;9.57;4.82;;;;;;;19.63;56.92;96759.91;9928604;29;20059;-52
2022/06/23 07:08:09;;;;;;;7.60;4.70;;;;;;;19.64;57.04;96770.41;9935320;29;20184;-53
2022/06/23 07:13:36;;;;;;;7.40;4.30;;;;;;;19.63;56.99;96773.44;9940871;29;20074;-53
2022/06/23 07:19:04;;;;;;;10.02;4.72;;;;;;;19.63;56.95;96776.13;9926742;29;20515;-53
2022/06/23 07:24:37;;;;;;;8.37;4.60;;;;;;;19.65;56.98;96779.31;9920286;29;20119;-52
2022/06/23 07:30:04;;;;;;;7.63;4.30;;;;;;;19.65;56.75;96779.31;9918247;29;20070;-51
2022/06/23 07:35:33;;;;;;;7.88;4.80;;;;;;;19.64;56.96;96775.81;9932067;29;20059;-53
2022/06/23 07:41:07;;;;;;;7.30;4.05;;;;;;;19.66;56.86;96784.38;9941799;29;20066;-53
2022/06/23 07:46:26;;;;;;;7.13;4.15;;;;;;;19.66;56.86;96784.38;9947069;29;20119;-53
2022/06/23 07:51:46;;;;;;;7.28;4.20;;;;;;;19.66;56.81;96783.56;9960221;29;20132;-53
2022/06/23 07:57:05;;;;;;;7.47;4.10;;;;;;;19.66;56.90;96778.97;9934543;29;20151;-54
2022/06/23 08:02:45;;;;;;;7.65;4.13;;;;;;;19.68;56.76;96778.63;9937501;29;20070;-53
2022/06/23 08:08:05;;;;;;;8.13;4.25;;;;;;;19.67;56.90;96779.78;9939514;29;20120;-53
2022/06/23 08:13:27;;;;;;;5.90;3.97;;;;;;;19.66;56.86;96784.38;9956442;29;20047;-54
2022/06/23 08:18:51;;;;;;;7.25;4.28;;;;;;;19.67;56.74;96780.56;9938551;29;20062;-53
2022/06/23 08:24:18;;;;;;;5.32;3.88;;;;;;;19.68;56.87;96786.75;9947135;29;20047;-53
2022/06/23 08:29:42;;;;;;;6.18;4.00;;;;;;;19.68;56.84;96794.84;9945848;29;20151;-53
2022/06/23 08:35:39;;;;;;;7.25;3.90;;;;;;;19.67;56.83;96785.97;9931316;29;20062;-54
2022/06/23 08:41:17;;;;;;;8.18;3.90;;;;;;;19.68;56.82;96790.25;9954928;29;20479;-51
2022/06/23 08:46:39;;;;;;;7.03;4.03;;;;;;;19.68;56.70;96787.56;9947504;29;20054;-52
2022/06/23 08:52:43;;;;;;;6.35;4.00;;;;;;;19.68;56.85;96792.97;9948139;29;20055;-53
2022/06/23 08:58:20;;;;;;;5.75;3.72;;;;;;;19.70;56.82;96792.66;9792037;30;20067;-53
2022/06/23 09:03:43;;;;;;;6.22;3.65;;;;;;;19.71;56.94;96788.81;9927985;29;20055;-53
2022/06/23 09:09:14;;;;;;;7.00;3.53;;;;;;;19.72;57.01;96775.00;9968952;29;20452;-53
2022/06/23 09:14:40;;;;;;;7.93;4.03;;;;;;;19.73;57.05;96779.28;9942191;29;20061;-53
2022/06/23 09:20:14;;;;;;;9.15;4.07;;;;;;;19.75;56.90;96773.56;9951882;29;20062;-53
2022/06/23 09:26:00;;;;;;;7.63;3.65;;;;;;;19.74;56.70;96772.78;9959983;29;20054;-53
2022/06/23 09:31:25;;;;;;;8.13;3.42;;;;;;;19.75;56.71;96776.25;9942109;29;20078;-54
2022/06/23 09:37:03;;;;;;;5.45;3.92;;;;;;;19.75;56.83;96773.56;9953792;29;20066;-53
2022/06/23 09:43:05;;;;;;;7.78;3.83;;;;;;;19.77;57.50;96774.03;9938620;29;20518;-53
2022/06/23 09:48:51;;;;;;;6.50;3.88;;;;;;;19.77;57.77;96774.03;9905527;29;20070;-54
2022/06/23 09:54:36;;;;;;;7.28;4.00;;;;;;;19.78;57.77;96764.00;9951032;29;20082;-54
2022/06/23 09:59:56;;;;;;;6.43;3.90;;;;;;;19.77;57.76;96765.91;9951352;29;20066;-54
2022/06/23 10:05:34;;;;;;;4.90;3.53;;;;;;;19.77;57.68;96760.50;9960648;29;20412;-54
2022/06/23 10:10:56;;;;;;;4.80;3.75;;;;;;;19.77;57.64;96773.22;9951999;29;20103;-54
2022/06/23 10:16:37;;;;;;;6.28;3.63;;;;;;;19.77;57.62;96768.63;9939667;29;20128;-54
2022/06/23 10:22:31;;;;;;;7.03;3.40;;;;;;;19.81;58.10;96772.25;9943242;29;20066;-54
2022/06/23 10:28:04;;;;;;;4.97;3.33;;;;;;;19.83;58.10;96753.78;9947201;29;20505;-54
2022/06/23 10:33:41;;;;;;;4.18;3.05;;;;;;;19.88;58.14;96753.63;9974871;29;20058;-53
2022/06/23 10:39:19;;;;;;;4.22;3.13;;;;;;;19.93;58.08;96768.84;9949094;29;20055;-54
2022/06/23 10:45:10;;;;;;;3.77;2.87;;;;;;;19.94;57.98;96749.59;9943245;29;20081;-54
2022/06/23 10:51:02;;;;;;;3.78;3.00;;;;;;;19.97;57.82;96750.06;9967181;29;20111;-54
2022/06/23 10:56:46;;;;;;;5.70;3.65;;;;;;;19.98;57.88;96740.84;9944963;29;20058;-53
2022/06/23 11:02:24;;;;;;;5.13;3.35;;;;;;;20.00;57.74;96739.38;9933915;29;20096;-54
2022/06/23 11:08:02;;;;;;;3.35;3.05;;;;;;;20.01;57.79;96730.13;9978255;29;20051;-54
2022/06/23 11:13:59;;;;;;;5.17;3.47;;;;;;;20.01;57.68;96722.03;9956877;29;20112;-54
2022/06/23 11:19:34;;;;;;;4.03;2.83;;;;;;;20.02;57.64;96715.50;9951727;29;20419;-54
2022/06/23 11:24:56;;;;;;;4.38;3.15;;;;;;;20.03;57.68;96716.28;9950777;29;20071;-54
2022/06/23 11:30:33;;;;;;;6.40;2.90;;;;;;;20.04;57.70;96715.19;9972131;29;20446;-55
2022/06/23 11:36:08;;;;;;;3.70;2.83;;;;;;;20.05;57.26;96712.16;9944645;29;20067;-54
2022/06/23 11:41:58;;;;;;;3.88;2.90;;;;;;;20.01;57.48;96700.38;9943202;29;20128;-54
2022/06/23 11:47:36;;;;;;;3.90;2.80;;;;;;;20.02;57.53;96690.38;9957672;29;20058;-54
2022/06/23 11:53:00;;;;;;;3.33;2.45;;;;;;;20.04;57.45;96693.56;9964213;29;20062;-54
2022/06/23 11:58:39;;;;;;;3.70;2.45;;;;;;;20.04;57.48;96697.03;9939100;29;20063;-52
2022/06/23 12:04:14;;;;;;;3.50;2.65;;;;;;;20.06;57.56;96686.69;9934980;29;20074;-54
2022/06/23 12:09:37;;;;;;;3.83;2.80;;;;;;;20.08;57.42;96689.06;9947816;29;20061;-55
2022/06/23 12:14:56;;;;;;;3.50;2.65;;;;;;;20.10;57.34;96697.63;9968011;29;20054;-54
2022/06/23 12:20:31;;;;;;;4.55;2.95;;;;;;;20.10;57.16;96697.63;9968894;29;20077;-54
2022/06/23 12:25:54;;;;;;;3.00;2.60;;;;;;;20.06;57.24;96680.50;9941412;29;20058;-54
2022/06/23 12:31:31;;;;;;;2.60;2.30;;;;;;;20.05;57.33;96684.31;9970903;29;20062;-54
2022/06/23 12:37:33;;;;;;;2.88;2.30;;;;;;;20.08;57.41;96679.03;9963650;29;20392;-53
2022/06/23 12:43:16;;;;;;;3.30;2.45;;;;;;;20.07;57.34;96679.34;9947045;29;20066;-54
2022/06/23 12:48:48;;;;;;;2.50;2.30;;;;;;;20.07;57.31;96671.25;9934868;29;20067;-53
2022/06/23 12:54:19;;;;;;;3.13;2.40;;;;;;;20.09;57.38;96663.59;9949132;29;20435;-54
2022/06/23 13:00:09;;;;;;;3.42;2.50;;;;;;;20.12;57.35;96671.06;9949628;29;20054;-53
2022/06/23 13:05:41;;;;;;;3.03;2.72;;;;;;;20.11;57.38;96656.75;9980772;29;20058;-53
2022/06/23 13:11:15;;;;;;;2.70;2.33;;;;;;;20.13;56.90;96648.28;9933928;29;20096;-54
2022/06/23 13:16:55;;;;;;;2.75;2.42;;;;;;;20.07;57.19;96642.31;9957019;29;20065;-54
2022/06/23 13:22:15;;;;;;;3.13;2.70;;;;;;;20.09;57.40;96644.66;9953393;29;20069;-53
2022/06/23 13:27:47;;;;;;;3.20;2.50;;;;;;;20.11;57.37;96639.72;9948001;29;20088;-54
2022/06/23 13:33:09;;;;;;;2.78;2.45;;;;;;;20.11;57.24;96639.72;9961808;29;20065;-54
2022/06/23 13:38:41;;;;;;;2.92;2.40;;;;;;;20.08;57.25;96630.34;9957890;29;20128;-54
2022/06/23 13:44:28;;;;;;;2.40;2.08;;;;;;;20.10;57.46;96632.75;9967948;29;20059;-54
2022/06/23 13:49:58;;;;;;;2.42;2.20;;;;;;;20.11;57.02;96626.19;9980362;29;20108;-54
2022/06/23 13:55:45;;;;;;;2.75;2.28;;;;;;;20.09;57.37;96617.63;9944669;29;20640;-53
2022/06/23 14:01:38;;;;;;;2.05;1.90;;;;;;;20.10;57.47;96617.28;9914547;29;20551;-51
2022/06/23 14:07:23;;;;;;;2.20;2.00;;;;;;;20.12;57.12;96614.25;9932013;29;20564;-51
2022/06/23 14:12:51;;;;;;;2.75;2.20;;;;;;;20.10;57.32;96613.81;9944465;29;20055;-54
2022/06/23 14:18:20;;;;;;;2.35;2.15;;;;;;;20.11;57.42;96604.56;9951534;29;20059;-54
2022/06/23 14:23:50;;;;;;;2.15;1.95;;;;;;;20.14;57.03;96601.19;9933484;29;20475;-54
2022/06/23 14:29:24;;;;;;;1.83;1.73;;;;;;;20.12;57.19;96601.53;9952079;29;20062;-53
2022/06/23 14:34:51;;;;;;;2.08;1.85;;;;;;;20.12;57.33;96606.94;9966185;29;20050;-53
2022/06/23 14:40:15;;;;;;;2.25;2.00;;;;;;;20.12;57.14;96596.13;9941772;29;20103;-54
2022/06/23 14:45:46;;;;;;;2.30;1.92;;;;;;;20.11;57.45;96589.13;9951169;29;20111;-54
2022/06/23 14:51:15;;;;;;;2.22;2.00;;;;;;;20.12;57.47;96582.59;9984438;29;20058;-54
2022/06/23 14:56:42;;;;;;;2.45;2.03;;;;;;;20.11;57.49;96585.63;9937671;29;20055;-54
2022/06/23 15:02:36;;;;;;;2.05;1.85;;;;;;;20.11;57.48;96581.03;9971603;29;20062;-54
2022/06/23 15:08:22;;;;;;;2.20;2.03;;;;;;;20.14;57.25;96568.75;9942347;29;20058;-53
2022/06/23 15:13:48;;;;;;;2.75;1.80;;;;;;;20.12;57.36;96577.19;9936443;29;20131;-51
2022/06/23 15:19:14;;;;;;;4.25;1.65;;;;;;;20.15;57.52;96565.72;9939591;29;20058;-55
2022/06/23 15:24:41;;;;;;;2.78;1.80;;;;;;;20.14;57.64;96558.72;9938834;29;20066;-54
2022/06/23 15:30:15;;;;;;;2.15;1.90;;;;;;;20.14;58.27;96547.09;9959920;29;20083;-54
2022/06/23 15:35:40;;;;;;;2.55;1.70;;;;;;;20.20;57.76;96551.19;9927250;29;20112;-53
2022/06/23 15:41:23;;;;;;;3.58;1.70;;;;;;;20.17;58.38;96554.56;9932739;29;20055;-54
2022/06/23 15:47:01;;;;;;;2.72;1.60;;;;;;;20.19;58.53;96546.09;9910639;29;20063;-52
2022/06/23 15:52:29;;;;;;;2.15;1.67;;;;;;;20.18;57.62;96545.31;9933935;29;20055;-53
2022/06/23 15:57:59;;;;;;;3.58;1.60;;;;;;;20.11;57.41;96543.16;9918151;29;20631;-57
2022/06/23 16:03:25;;;;;;;2.33;1.65;;;;;;;20.09;57.31;96550.81;9929684;29;20131;-59
2022/06/23 16:08:51;;;;;;;2.90;1.42;;;;;;;20.07;57.48;96542.25;9927795;29;20065;-59
2022/06/23 16:14:10;;;;;;;3.55;1.60;;;;;;;20.06;57.26;96537.97;9922053;29;20071;-56
2022/06/23 16:19:33;;;;;;;2.15;1.30;;;;;;;20.07;57.26;96542.25;9918806;29;20105;-55
2022/06/23 16:25:11;;;;;;;4.88;1.48;;;;;;;20.07;57.43;96534.16;9938583;29;20062;-57
2022/06/23 16:30:38;;;;;;;6.15;1.58;;;;;;;20.07;57.62;96531.44;9948569;29;20050;-57
2022/06/23 16:36:09;;;;;;;3.53;1.50;;;;;;;20.07;57.42;96526.03;9934310;29;20073;-56
2022/06/23 16:41:50;;;;;;;2.42;1.33;;;;;;;20.05;57.32;96525.56;9944347;29;20054;-53
2022/06/23 16:47:19;;;;;;;2.55;1.40;;;;;;;20.06;57.52;96524.44;9957807;29;20061;-50
2022/06/23 16:53:00;;;;;;;1.85;1.25;;;;;;;20.07;57.26;96527.91;9920243;29;20078;-51
2022/06/23 16:58:43;;;;;;;2.00;1.52;;;;;;;20.06;57.08;96526.34;9931836;29;20462;-54
2022/06/23 17:04:13;;;;;;;2.38;1.52;;;;;;;20.05;57.00;96536.38;9939300;29;20071;-54
2022/06/23 17:09:38;;;;;;;1.50;1.33;;;;;;;20.06;56.90;96539.88;9916528;29;20081;-51
2022/06/23 17:15:15;;;;;;;3.25;1.60;;;;;;;20.05;56.89;96535.56;9923444;29;20583;-53
2022/06/23 17:20:38;;;;;;;1.50;1.40;;;;;;;20.06;56.92;96537.97;9932756;29;20074;-53
2022/06/23 17:26:01;;;;;;;2.65;1.50;;;;;;;20.05;56.98;96530.16;9919657;29;20653;-53
2022/06/23 17:31:24;;;;;;;2.42;1.45;;;;;;;20.05;56.95;96539.09;9917159;29;20116;-53
2022/06/23 17:36:59;;;;;;;3.30;1.35;;;;;;;20.05;56.98;96535.56;9912757;29;20063;-53
2022/06/23 17:48:14;;;;;;;3.15;1.77;;;;;;;20.05;56.97;96533.69;9910648;29;20067;-53
2022/06/23 17:53:35;;;;;;;2.65;1.90;;;;;;;20.05;56.71;96532.88;9920072;29;20066;-53
2022/06/23 17:58:54;;;;;;;4.22;1.80;;;;;;;19.97;55.36;96533.75;9929352;29;20066;-54
2022/06/23 18:04:15;;;;;;;4.18;1.90;;;;;;;19.99;57.56;96535.00;9931233;29;20419;-53
2022/06/23 18:09:35;;;;;;;3.15;1.90;;;;;;;20.01;57.74;96532.75;9927890;29;20400;-53
2022/06/23 18:15:33;;;;;;;3.65;1.88;;;;;;;20.02;57.54;96538.97;9911820;29;20072;-53
2022/06/23 18:20:57;;;;;;;3.38;1.73;;;;;;;20.01;57.41;96534.66;9922551;29;20511;-53
2022/06/23 18:26:22;;;;;;;2.60;1.80;;;;;;;20.01;57.29;96537.38;9917016;29;20472;-53
2022/06/23 18:31:48;;;;;;;2.70;1.67;;;;;;;20.03;57.35;96535.13;9934015;29;20051;-53
2022/06/23 18:37:14;;;;;;;3.83;2.00;;;;;;;20.02;57.41;96533.56;9917340;29;20071;-53
2022/06/23 18:42:42;;;;;;;3.47;2.10;;;;;;;20.02;57.40;96537.03;9937690;29;20062;-54
2022/06/23 18:48:34;;;;;;;1.88;1.48;;;;;;;20.06;50.96;96540.66;9930511;29;20146;-53
2022/06/23 18:53:58;;;;;;;2.08;1.48;;;;;;;20.10;49.99;96536.16;9936938;29;20595;-53
2022/06/23 18:59:37;;;;;;;2.42;1.40;;;;;;;20.12;47.28;96538.53;9947002;29;20399;-52
2022/06/23 19:05:04;;;;;;;1.90;1.48;;;;;;;20.16;47.18;96542.16;9943800;29;20075;-53
2022/06/23 19:10:48;;;;;;;2.15;1.60;;;;;;;20.19;47.17;96546.09;9934454;29;20683;-52
2022/06/23 19:16:26;;;;;;;2.47;1.42;;;;;;;20.16;47.64;96552.97;9933664;29;20091;-52
2022/06/23 19:22:01;;;;;;;1.70;1.50;;;;;;;20.12;48.09;96542.03;9952485;29;20093;-53
2022/06/23 19:27:33;;;;;;;3.75;1.30;;;;;;;20.07;48.43;96553.06;9918770;29;20441;-53
2022/06/23 19:32:54;;;;;;;3.55;1.55;;;;;;;20.05;49.03;96549.09;9910299;29;20055;-53
2022/06/23 19:38:31;;;;;;;1.63;1.52;;;;;;;20.04;49.09;96563.75;9898981;29;20063;-53
2022/06/23 19:44:12;;;;;;;1.77;1.38;;;;;;;20.02;49.17;96557.91;9906524;29;20147;-53
2022/06/23 19:49:41;;;;;;;2.13;1.65;;;;;;;20.00;49.52;96546.63;9910764;29;20408;-53
2022/06/23 19:55:11;;;;;;;3.33;1.63;;;;;;;19.98;50.85;96543.47;9896148;29;20217;-53
2022/06/23 20:01:09;;;;;;;2.47;1.50;;;;;;;19.87;52.51;96549.25;9920925;29;20055;-53
2022/06/23 20:06:38;;;;;;;1.67;1.58;;;;;;;19.75;52.53;96546.50;9948668;29;20066;-53
2022/06/23 20:12:28;;;;;;;1.55;1.45;;;;;;;19.63;53.56;96536.41;9934611;29;20051;-53
2022/06/23 20:17:51;;;;;;;1.75;1.65;;;;;;;19.63;52.81;96549.13;9956735;29;20067;-53
2022/06/23 20:23:32;;;;;;;1.48;1.38;;;;;;;19.67;52.46;96544.66;9961108;29;20059;-53
2022/06/23 20:29:16;;;;;;;2.30;1.80;;;;;;;19.69;51.65;96543.19;9942250;29;20050;-53
2022/06/23 20:35:06;;;;;;;1.88;1.60;;;;;;;19.69;51.90;96542.41;9923565;29;20063;-53
2022/06/23 20:40:40;;;;;;;3.10;1.70;;;;;;;19.68;51.76;96552.44;9907141;29;20116;-53
2022/06/23 20:46:50;;;;;;;1.60;1.50;;;;;;;19.66;51.96;96543.06;9942893;29;20062;-52
2022/06/23 20:52:25;;;;;;;1.98;1.73;;;;;;;19.63;52.05;96551.84;9923168;29;20518;-54
2022/06/23 20:58:02;;;;;;;2.58;1.80;;;;;;;19.63;51.85;96551.84;9941842;29;20050;-52
2022/06/23 21:03:48;;;;;;;3.67;1.70;;;;;;;19.63;52.15;96552.63;9935022;29;20074;-51
2022/06/23 21:09:26;;;;;;;1.60;1.50;;;;;;;19.68;52.50;96551.63;9952208;29;20059;-53
2022/06/23 21:15:03;;;;;;;1.80;1.70;;;;;;;19.72;52.63;96558.78;9941624;29;20062;-53
2022/06/23 21:20:47;;;;;;;3.50;1.45;;;;;;;19.74;52.91;96550.34;9938863;29;20062;-54
2022/06/23 21:26:21;;;;;;;5.55;2.10;;;;;;;19.76;52.91;96553.50;9950608;29;20062;-53
2022/06/23 21:31:45;;;;;;;2.10;1.60;;;;;;;19.77;52.99;96543.47;9920530;29;20691;-53
2022/06/23 21:37:06;;;;;;;2.42;1.67;;;;;;;19.79;53.23;96539.31;9928244;29;20058;-52
2022/06/23 21:42:36;;;;;;;1.83;1.73;;;;;;;19.79;53.20;96552.84;9945885;29;20103;-50
2022/06/23 21:48:01;;;;;;;2.22;1.90;;;;;;;19.81;53.36;96549.81;9948991;29;20504;-49
2022/06/23 21:53:48;;;;;;;2.90;1.92;;;;;;;19.81;53.39;96547.88;9940952;29;20055;-53
2022/06/23 21:59:30;;;;;;;2.22;1.80;;;;;;;19.80;53.41;96542.81;9941704;29;20051;-53
2022/06/23 22:05:02;;;;;;;2.97;1.60;;;;;;;19.81;53.49;96542.47;9931590;29;20430;-52
2022/06/23 22:10:25;;;;;;;2.00;1.85;;;;;;;19.81;53.53;96545.19;9952752;29;20062;-53
2022/06/23 22:15:53;;;;;;;1.75;1.65;;;;;;;19.81;53.49;96550.59;9950090;29;20553;-50
2022/06/23 22:21:45;;;;;;;1.98;1.77;;;;;;;19.81;53.55;96555.22;9957788;29;20074;-52
2022/06/23 22:27:11;;;;;;;2.78;1.65;;;;;;;19.81;53.74;96553.28;9926964;29;20632;-51
2022/06/23 22:32:55;;;;;;;2.55;1.80;;;;;;;19.80;53.63;96553.63;9946897;29;20051;-52
2022/06/23 22:38:23;;;;;;;2.50;1.60;;;;;;;19.81;53.59;96561.41;9939765;29;20054;-53
2022/06/23 22:43:44;;;;;;;1.52;1.42;;;;;;;19.81;53.62;96563.31;9934674;29;20063;-53
2022/06/23 22:49:33;;;;;;;1.80;1.67;;;;;;;19.81;53.64;96572.22;9936675;29;20054;-53
2022/06/23 22:54:53;;;;;;;1.60;1.50;;;;;;;19.80;53.67;96567.13;9937339;29;20062;-53
2022/06/23 23:00:28;;;;;;;1.88;1.63;;;;;;;19.80;53.61;96567.13;9921160;29;20070;-52
2022/06/23 23:06:16;;;;;;;1.60;1.50;;;;;;;19.81;53.66;96560.63;9934212;29;20054;-52
2022/06/23 23:11:40;;;;;;;1.60;1.50;;;;;;;19.80;53.64;96565.25;9966320;29;20046;-51
2022/06/23 23:17:00;;;;;;;1.70;1.60;;;;;;;19.79;53.63;96560.94;9962227;29;20065;-53
2022/06/23 23:22:27;;;;;;;1.98;1.50;;;;;;;19.82;53.58;96562.22;9949624;29;20073;-50
2022/06/23 23:28:07;;;;;;;1.70;1.58;;;;;;;19.83;53.33;96564.56;9921924;29;20058;-53
2022/06/23 23:33:31;;;;;;;2.30;2.10;;;;;;;19.83;53.58;96553.75;9956820;29;20656;-53
2022/06/23 23:38:56;;;;;;;1.80;1.70;;;;;;;19.82;53.59;96556.81;9942800;29;20059;-51
2022/06/23 23:44:16;;;;;;;2.80;1.58;;;;;;;19.81;53.70;96545.19;9945850;29;20427;-52
2022/06/23 23:49:41;;;;;;;3.05;1.70;;;;;;;19.80;53.32;96548.22;9948549;29;20065;-53
2022/06/23 23:55:05;;;;;;;1.52;1.42;;;;;;;19.81;53.54;96550.59;9964092;29;20507;-52
